createdAt,value
2023-07-06T00:00:34.017Z,40.93
2023-07-06T00:02:39.777Z,40.75
2023-07-06T00:04:45.262Z,40.71
2023-07-06T00:06:50.701Z,40.67
2023-07-06T00:08:56.289Z,40.52
2023-07-06T00:11:01.943Z,40.44
2023-07-06T00:13:07.684Z,40.39
2023-07-06T00:15:13.151Z,40.4
2023-07-06T00:17:18.567Z,40.38
2023-07-06T00:19:24.087Z,40.32
2023-07-06T00:21:29.754Z,40.16
2023-07-06T00:23:35.298Z,40.01
2023-07-06T00:25:40.695Z,39.79
2023-07-06T00:27:46.181Z,39.82
2023-07-06T00:29:51.717Z,39.91
2023-07-06T00:31:57.424Z,39.74
2023-07-06T00:34:03.117Z,39.62
2023-07-06T00:36:08.554Z,39.56
2023-07-06T00:38:14.096Z,39.56
2023-07-06T00:40:19.514Z,39.5
2023-07-06T00:42:25.409Z,39.44
2023-07-06T00:44:30.885Z,39.43
2023-07-06T00:46:36.627Z,39.38
2023-07-06T00:48:42.225Z,39.27
2023-07-06T00:50:47.594Z,39.19
2023-07-06T00:52:52.981Z,39.16
2023-07-06T00:54:58.501Z,38.92
2023-07-06T00:57:03.983Z,38.96
2023-07-06T00:59:09.940Z,38.91
2023-07-06T01:01:15.598Z,38.9
2023-07-06T01:03:21.431Z,38.8
2023-07-06T01:05:27.066Z,38.74
2023-07-06T01:07:32.616Z,38.68
2023-07-06T01:09:37.892Z,38.67
2023-07-06T01:13:36.564Z,38.65
2023-07-06T01:15:42.116Z,38.69
2023-07-06T01:17:47.639Z,38.59
2023-07-06T01:19:53.153Z,38.61
2023-07-06T01:21:58.611Z,38.63
2023-07-06T01:24:03.947Z,38.6
2023-07-06T01:26:09.388Z,38.59
2023-07-06T01:28:15.770Z,38.74
2023-07-06T01:30:21.779Z,38.64
2023-07-06T01:32:27.605Z,38.56
2023-07-06T01:34:33.200Z,38.49
2023-07-06T01:36:38.747Z,38.46
2023-07-06T01:38:44.291Z,38.36
2023-07-06T01:40:49.808Z,38.26
2023-07-06T01:42:55.478Z,38.18
2023-07-06T01:45:01.117Z,38.17
2023-07-06T01:47:07.226Z,38.18
2023-07-06T01:49:12.786Z,38.17
2023-07-06T01:51:18.256Z,38.28
2023-07-06T01:53:23.820Z,38.22
2023-07-06T01:55:29.325Z,38.2
2023-07-06T01:58:02.271Z,38.26
2023-07-06T02:00:08.295Z,38.21
2023-07-06T02:02:14.148Z,38.23
2023-07-06T02:04:19.554Z,38.13
2023-07-06T02:06:24.952Z,38.08
2023-07-06T02:08:30.469Z,38.08
2023-07-06T02:10:36.039Z,38.07
2023-07-06T02:12:41.456Z,37.97
2023-07-06T02:14:47.081Z,37.96
2023-07-06T02:16:52.597Z,37.99
2023-07-06T02:18:58.166Z,37.94
2023-07-06T02:21:03.927Z,37.96
2023-07-06T02:23:09.852Z,37.93
2023-07-06T02:25:15.626Z,37.96
2023-07-06T02:27:21.059Z,37.94
2023-07-06T02:29:26.602Z,37.82
2023-07-06T02:31:31.931Z,37.85
2023-07-06T02:33:37.501Z,37.93
2023-07-06T02:35:43.219Z,37.93
2023-07-06T02:37:48.773Z,37.93
2023-07-06T02:39:54.324Z,37.88
2023-07-06T02:42:00.065Z,37.84
2023-07-06T02:44:05.725Z,37.77
2023-07-06T02:46:11.082Z,37.75
2023-07-06T02:48:16.703Z,37.73
2023-07-06T02:50:22.242Z,37.66
2023-07-06T02:52:27.650Z,37.63
2023-07-06T02:54:33.120Z,37.55
2023-07-06T02:56:38.656Z,37.52
2023-07-06T02:58:44.197Z,37.48
2023-07-06T03:00:49.584Z,37.53
2023-07-06T03:02:55.128Z,37.52
2023-07-06T03:05:00.792Z,37.59
2023-07-06T03:07:06.230Z,37.55
2023-07-06T03:09:11.717Z,37.57
2023-07-06T03:11:17.132Z,37.6
2023-07-06T03:13:22.524Z,37.53
2023-07-06T03:15:28.138Z,37.47
2023-07-06T03:17:33.742Z,37.35
2023-07-06T03:19:39.314Z,37.3
2023-07-06T03:21:44.773Z,37.26
2023-07-06T03:23:50.135Z,37.24
2023-07-06T03:25:56.146Z,37.18
2023-07-06T03:28:01.846Z,37.17
2023-07-06T03:30:07.154Z,37.12
2023-07-06T03:32:12.616Z,37.17
2023-07-06T03:34:18.131Z,37.09
2023-07-06T03:36:23.685Z,36.99
2023-07-06T03:38:29.215Z,37.02
2023-07-06T03:40:34.848Z,37.04
2023-07-06T03:42:40.226Z,37.01
2023-07-06T03:44:45.578Z,36.97
2023-07-06T03:46:51.013Z,36.98
2023-07-06T03:48:56.411Z,36.98
2023-07-06T03:51:01.823Z,36.88
2023-07-06T03:53:07.305Z,36.93
2023-07-06T03:55:12.837Z,36.89
2023-07-06T03:57:18.282Z,36.87
2023-07-06T03:59:23.719Z,36.93
2023-07-06T04:01:29.433Z,36.87
2023-07-06T04:03:35.066Z,36.84
2023-07-06T04:05:40.654Z,36.88
2023-07-06T04:07:46.212Z,36.91
2023-07-06T04:09:51.544Z,36.91
2023-07-06T04:11:57.090Z,36.88
2023-07-06T04:14:02.868Z,36.9
2023-07-06T04:16:08.434Z,37.07
2023-07-06T04:18:14.126Z,36.86
2023-07-06T04:20:19.562Z,36.83
2023-07-06T04:22:25.002Z,36.82
2023-07-06T04:24:30.549Z,36.8
2023-07-06T04:26:35.911Z,36.76
2023-07-06T04:28:41.428Z,36.69
2023-07-06T04:30:46.868Z,36.69
2023-07-06T04:32:52.473Z,36.8
2023-07-06T04:34:57.954Z,36.87
2023-07-06T04:37:03.322Z,36.8
2023-07-06T04:39:08.901Z,36.72
2023-07-06T04:41:14.511Z,36.63
2023-07-06T04:43:20.031Z,36.58
2023-07-06T04:45:25.490Z,36.57
2023-07-06T04:47:31.027Z,36.55
2023-07-06T04:49:36.509Z,36.53
2023-07-06T04:51:41.997Z,36.48
2023-07-06T04:53:47.526Z,36.43
2023-07-06T04:55:52.962Z,36.43
2023-07-06T04:58:00.185Z,36.53
2023-07-06T05:00:05.588Z,36.55
2023-07-06T05:02:11.233Z,36.53
2023-07-06T05:04:16.653Z,36.49
2023-07-06T05:06:22.095Z,36.5
2023-07-06T05:08:27.567Z,36.49
2023-07-06T05:10:33.100Z,36.38
2023-07-06T05:12:38.453Z,36.44
2023-07-06T05:14:46.527Z,36.48
2023-07-06T05:16:52.185Z,36.46
2023-07-06T05:18:57.730Z,36.48
2023-07-06T05:21:03.288Z,36.51
2023-07-06T05:23:08.811Z,36.56
2023-07-06T05:25:14.187Z,36.54
2023-07-06T05:27:19.599Z,36.5
2023-07-06T05:29:24.834Z,36.51
2023-07-06T05:31:30.295Z,36.58
2023-07-06T05:33:36.025Z,35.75
2023-07-06T05:35:41.627Z,35.38
2023-07-06T05:37:47.048Z,35.9
2023-07-06T05:39:52.531Z,35.95
2023-07-06T05:41:57.986Z,35.68
2023-07-06T05:44:03.728Z,35.74
2023-07-06T05:46:09.552Z,35.73
2023-07-06T05:48:14.954Z,35.87
2023-07-06T05:50:20.470Z,36.1
2023-07-06T05:52:26.004Z,36
2023-07-06T05:54:31.548Z,36.33
2023-07-06T05:56:36.990Z,36.8
2023-07-06T05:58:42.667Z,36.81
2023-07-06T06:00:48.289Z,36.84
2023-07-06T06:02:53.900Z,36.94
2023-07-06T06:04:59.252Z,37.17
2023-07-06T06:07:04.815Z,37.13
2023-07-06T06:09:10.347Z,37.43
2023-07-06T06:11:15.741Z,37.62
2023-07-06T06:13:21.245Z,37.42
2023-07-06T06:15:26.697Z,37.27
2023-07-06T06:17:32.314Z,37.18
2023-07-06T06:19:37.842Z,37.06
2023-07-06T06:21:43.299Z,37.13
2023-07-06T06:23:48.939Z,37.3
2023-07-06T06:25:54.547Z,37.36
2023-07-06T06:28:00.110Z,37.46
2023-07-06T06:30:05.576Z,37.35
2023-07-06T06:32:11.359Z,36.97
2023-07-06T06:34:16.982Z,36.88
2023-07-06T06:36:22.309Z,36.73
2023-07-06T06:38:27.842Z,36.68
2023-07-06T06:40:33.402Z,36.81
2023-07-06T06:42:38.829Z,36.76
2023-07-06T06:44:44.270Z,36.85
2023-07-06T06:46:49.956Z,36.63
2023-07-06T06:48:55.459Z,36.6
2023-07-06T06:51:00.929Z,36.49
2023-07-06T06:53:06.562Z,36.46
2023-07-06T06:55:12.093Z,36.3
2023-07-06T06:57:17.532Z,36.14
2023-07-06T06:59:23.176Z,35.96
2023-07-06T07:01:28.622Z,35.84
2023-07-06T07:03:34.197Z,35.81
2023-07-06T07:05:39.821Z,35.85
2023-07-06T07:07:45.332Z,35.64
2023-07-06T07:09:50.724Z,35.46
2023-07-06T07:11:56.535Z,35.27
2023-07-06T07:14:02.200Z,35.39
2023-07-06T07:16:07.749Z,35.05
2023-07-06T07:18:13.364Z,34.97
2023-07-06T07:20:18.847Z,34.69
2023-07-06T07:22:24.290Z,34.49
2023-07-06T07:24:29.781Z,34.39
2023-07-06T07:26:35.243Z,34.3
2023-07-06T07:28:40.588Z,34.38
2023-07-06T07:30:46.105Z,34.38
2023-07-06T07:32:51.819Z,34.28
2023-07-06T07:34:57.338Z,34.36
2023-07-06T07:37:02.844Z,34.31
2023-07-06T07:39:08.209Z,34.29
2023-07-06T07:41:13.699Z,34.4
2023-07-06T07:43:19.132Z,34.4
2023-07-06T07:45:24.600Z,34.33
2023-07-06T07:47:30.227Z,34.33
2023-07-06T07:49:35.815Z,34.19
2023-07-06T07:51:41.437Z,34.08
2023-07-06T07:53:47.136Z,34.03
2023-07-06T07:55:52.629Z,33.99
2023-07-06T07:57:58.166Z,33.89
2023-07-06T08:00:03.825Z,33.83
2023-07-06T08:02:09.244Z,33.87
2023-07-06T08:04:14.907Z,33.75
2023-07-06T08:06:20.528Z,33.67
2023-07-06T08:08:26.007Z,33.51
2023-07-06T08:10:31.522Z,33.45
2023-07-06T08:12:36.890Z,33.61
2023-07-06T08:14:42.266Z,33.52
2023-07-06T08:16:47.672Z,33.5
2023-07-06T08:19:27.692Z,33.56
2023-07-06T08:22:13.079Z,33.56
2023-07-06T08:24:18.300Z,33.42
2023-07-06T08:26:24.000Z,33.38
2023-07-06T08:28:29.599Z,33.32
2023-07-06T08:30:34.915Z,33.3
2023-07-06T08:32:40.482Z,33.12
2023-07-06T08:34:45.954Z,33.27
2023-07-06T08:36:51.448Z,32.79
2023-07-06T08:38:56.897Z,32.78
2023-07-06T08:41:02.292Z,32.34
2023-07-06T08:43:07.711Z,32.08
2023-07-06T08:45:13.225Z,31.89
2023-07-06T08:47:18.775Z,31.6
2023-07-06T08:49:26.649Z,31.56
2023-07-06T08:51:33.599Z,31.43
2023-07-06T08:53:38.967Z,31.45
2023-07-06T08:55:44.422Z,31.81
2023-07-06T08:57:49.972Z,32.66
2023-07-06T08:59:55.467Z,32.52
2023-07-06T09:02:00.901Z,32.57
2023-07-06T09:04:06.453Z,32.64
2023-07-06T09:06:11.788Z,32.5
2023-07-06T09:08:17.391Z,32.27
2023-07-06T09:10:28.446Z,31.88
2023-07-06T09:12:33.989Z,31.56
2023-07-06T09:14:39.533Z,31.59
2023-07-06T09:16:45.200Z,31.49
2023-07-06T09:18:50.705Z,31.63
2023-07-06T09:20:56.144Z,31.99
2023-07-06T09:23:01.604Z,31.8
2023-07-06T09:25:07.052Z,32
2023-07-06T09:27:12.469Z,31.93
2023-07-06T09:29:18.123Z,31.6
2023-07-06T09:31:23.753Z,32.01
2023-07-06T09:33:32.878Z,32.08
2023-07-06T09:35:38.757Z,32.45
2023-07-06T09:37:44.389Z,31.89
2023-07-06T09:39:49.925Z,31.48
2023-07-06T09:41:55.478Z,31.79
2023-07-06T09:44:01.206Z,31.4
2023-07-06T09:46:08.149Z,32.13
2023-07-06T09:48:13.945Z,31.78
2023-07-06T09:50:19.600Z,31.82
2023-07-06T09:52:25.137Z,32.01
2023-07-06T09:54:30.575Z,32.07
2023-07-06T09:56:36.022Z,31.89
2023-07-06T09:58:41.376Z,32.05
2023-07-06T10:00:46.900Z,31.98
2023-07-06T10:02:52.553Z,31.95
2023-07-06T10:04:58.050Z,32.11
2023-07-06T10:07:03.528Z,32.05
2023-07-06T10:09:09.065Z,32.03
2023-07-06T10:11:14.540Z,31.9
2023-07-06T10:13:20.037Z,32.01
2023-07-06T10:15:25.532Z,31.86
2023-07-06T10:17:31.229Z,31.69
2023-07-06T10:19:36.579Z,31.7
2023-07-06T10:21:42.120Z,31.81
2023-07-06T10:23:47.678Z,31.95
2023-07-06T10:25:53.305Z,32.04
2023-07-06T10:27:58.769Z,31.88
2023-07-06T10:30:04.380Z,31.98
2023-07-06T10:32:10.086Z,31.73
2023-07-06T10:34:15.566Z,31.59
2023-07-06T10:36:21.119Z,31.51
2023-07-06T10:38:26.682Z,31.24
2023-07-06T10:40:32.196Z,31.31
2023-07-06T10:42:37.643Z,31.4
2023-07-06T10:44:43.216Z,31.23
2023-07-06T10:46:48.734Z,31.02
2023-07-06T10:48:54.279Z,30.68
2023-07-06T10:50:59.809Z,30.63
2023-07-06T10:53:05.261Z,30.94
2023-07-06T10:55:10.622Z,30.96
2023-07-06T10:57:15.917Z,31.11
2023-07-06T10:59:21.358Z,30.96
2023-07-06T11:01:26.838Z,30.83
2023-07-06T11:03:33.013Z,29.84
2023-07-06T11:05:40.520Z,30.99
2023-07-06T11:07:46.160Z,30.05
2023-07-06T11:09:51.673Z,30.18
2023-07-06T11:11:57.180Z,30.27
2023-07-06T11:14:02.853Z,30.45
2023-07-06T11:16:09.812Z,30.64
2023-07-06T11:18:15.227Z,30.36
2023-07-06T11:20:20.653Z,30.22
2023-07-06T11:22:26.167Z,30
2023-07-06T11:24:31.690Z,30.31
2023-07-06T11:26:37.137Z,29.91
2023-07-06T11:28:42.620Z,30.31
2023-07-06T11:30:48.112Z,30.31
2023-07-06T11:32:53.639Z,30.35
2023-07-06T11:34:59.414Z,30.38
2023-07-06T11:37:04.955Z,29.72
2023-07-06T11:39:10.566Z,30.55
2023-07-06T11:41:15.983Z,30.55
2023-07-06T11:43:21.479Z,30.83
2023-07-06T11:45:27.527Z,30.31
2023-07-06T11:47:33.156Z,30.61
2023-07-06T11:49:38.571Z,29.89
2023-07-06T11:51:44.055Z,29.27
2023-07-06T11:53:49.501Z,29.86
2023-07-06T11:55:55.181Z,30.12
2023-07-06T11:58:00.961Z,29.01
2023-07-06T12:00:06.549Z,29.23
2023-07-06T12:02:12.188Z,29.21
2023-07-06T12:04:17.857Z,29.12
2023-07-06T12:06:23.269Z,28.67
2023-07-06T12:08:29.262Z,28.16
2023-07-06T12:10:34.611Z,28.74
2023-07-06T12:12:40.103Z,28.36
2023-07-06T12:14:45.441Z,28.92
2023-07-06T12:16:50.882Z,28.91
2023-07-06T12:18:56.530Z,28.71
2023-07-06T12:21:05.308Z,28.64
2023-07-06T12:23:10.788Z,28.86
2023-07-06T12:25:16.391Z,27.7
2023-07-06T12:27:21.973Z,26.62
2023-07-06T12:29:27.617Z,28.35
2023-07-06T12:31:33.543Z,28.31
2023-07-06T12:33:39.060Z,27.62
2023-07-06T12:35:44.660Z,28.1
2023-07-06T12:37:50.145Z,28.36
2023-07-06T12:39:55.737Z,27.6
2023-07-06T12:42:01.384Z,28.34
2023-07-06T12:44:06.852Z,28.75
2023-07-06T12:46:12.522Z,28.77
2023-07-06T12:48:18.119Z,28.7
2023-07-06T12:50:23.455Z,28.64
2023-07-06T12:52:29.213Z,28.74
2023-07-06T12:54:34.633Z,28.85
2023-07-06T12:56:39.949Z,28.97
2023-07-06T12:58:45.338Z,28.77
2023-07-06T13:00:51.022Z,29.07
2023-07-06T13:02:56.839Z,28.71
2023-07-06T13:05:02.301Z,29.18
2023-07-06T13:07:07.776Z,29.87
2023-07-06T13:09:13.235Z,29.69
2023-07-06T13:11:18.702Z,30.06
2023-07-06T13:13:24.299Z,30.36
2023-07-06T13:15:29.946Z,30.72
2023-07-06T13:17:35.694Z,31.11
2023-07-06T13:19:41.430Z,29.84
2023-07-06T13:21:46.897Z,28.79
2023-07-06T13:23:52.348Z,29.04
2023-07-06T13:25:59.557Z,28.8
2023-07-06T13:28:05.378Z,28.85
2023-07-06T13:30:10.954Z,28.39
2023-07-06T13:32:21.411Z,27.82
2023-07-06T13:34:27.125Z,27.77
2023-07-06T13:36:32.578Z,26.71
2023-07-06T13:38:38.019Z,27.4
2023-07-06T13:40:43.680Z,28.13
2023-07-06T13:42:49.513Z,28.31
2023-07-06T13:44:55.356Z,28.05
2023-07-06T13:47:00.741Z,27.81
2023-07-06T13:49:06.348Z,27.34
2023-07-06T13:51:11.817Z,26.78
2023-07-06T13:53:17.320Z,26.84
2023-07-06T13:55:22.966Z,26.67
2023-07-06T13:57:28.515Z,27.08
2023-07-06T13:59:34.057Z,27.69
2023-07-06T14:01:39.749Z,27.92
2023-07-06T14:03:46.046Z,28.21
2023-07-06T14:05:51.715Z,28.45
2023-07-06T14:07:57.269Z,28.42
2023-07-06T14:10:03.182Z,28.85
2023-07-06T14:12:08.794Z,29.47
2023-07-06T14:14:14.707Z,29.35
2023-07-06T14:16:20.417Z,29.6
2023-07-06T14:18:25.787Z,29.65
2023-07-06T14:20:31.543Z,29.74
2023-07-06T14:22:36.981Z,30.28
2023-07-06T14:24:42.747Z,30.22
2023-07-06T14:26:48.253Z,30.29
2023-07-06T14:28:53.876Z,30.1
2023-07-06T14:30:59.463Z,30.39
2023-07-06T14:33:05.191Z,30.1
2023-07-06T14:35:10.847Z,30.57
2023-07-06T14:37:16.500Z,29.58
2023-07-06T14:39:22.353Z,30.62
2023-07-06T14:41:28.012Z,30.68
2023-07-06T14:43:36.302Z,31.08
2023-07-06T14:45:41.942Z,31.3
2023-07-06T14:47:47.735Z,31.64
2023-07-06T14:49:53.161Z,31.29
2023-07-06T14:51:58.677Z,31.19
2023-07-06T14:54:04.216Z,31.23
2023-07-06T14:56:09.627Z,31.14
2023-07-06T14:58:15.217Z,31.69
2023-07-06T15:00:20.773Z,30.81
2023-07-06T15:02:26.399Z,30.36
2023-07-06T15:04:31.923Z,31.42
2023-07-06T15:06:37.481Z,30.73
2023-07-06T15:08:43.023Z,31.21
2023-07-06T15:10:48.556Z,30.33
2023-07-06T15:12:54.384Z,31.09
2023-07-06T15:14:59.863Z,31.08
2023-07-06T15:17:05.503Z,31.67
2023-07-06T15:19:10.972Z,31.81
2023-07-06T15:21:16.405Z,31.63
2023-07-06T15:23:22.132Z,31.8
2023-07-06T15:25:27.568Z,31.63
2023-07-06T15:27:33.129Z,31.57
2023-07-06T15:29:38.700Z,32.19
2023-07-06T15:31:44.348Z,32.08
2023-07-06T15:33:49.841Z,32.09
2023-07-06T15:35:55.655Z,31.98
2023-07-06T15:38:01.199Z,31.67
2023-07-06T15:40:06.765Z,32.22
2023-07-06T15:42:12.270Z,32.3
2023-07-06T15:44:17.770Z,32.24
2023-07-06T15:46:23.624Z,32.52
2023-07-06T15:48:29.300Z,29.33
2023-07-06T15:50:34.813Z,30.39
2023-07-06T15:52:40.281Z,30.54
2023-07-06T15:54:45.685Z,28.66
2023-07-06T15:56:51.245Z,28.37
2023-07-06T15:58:56.593Z,28.37
2023-07-06T16:01:02.235Z,28.45
2023-07-06T16:03:08.269Z,28.81
2023-07-06T16:05:13.785Z,28.52
2023-07-06T16:07:28.054Z,28.75
2023-07-06T16:09:33.393Z,28.86
2023-07-06T16:11:38.916Z,29.03
2023-07-06T16:13:44.494Z,28.98
2023-07-06T16:15:50.241Z,28.91
2023-07-06T16:17:55.973Z,28.92
2023-07-06T16:20:01.662Z,28.87
2023-07-06T16:22:07.259Z,28.84
2023-07-06T16:24:12.841Z,28.68
2023-07-06T16:26:18.290Z,28.87
2023-07-06T16:28:23.918Z,28.8
2023-07-06T16:30:29.299Z,28.73
2023-07-06T16:32:35.156Z,28.58
2023-07-06T16:34:40.660Z,28.85
2023-07-06T16:36:46.111Z,28.5
2023-07-06T16:38:51.746Z,28.52
2023-07-06T16:40:57.181Z,28.51
2023-07-06T16:43:02.519Z,28.71
2023-07-06T16:45:07.968Z,29.15
2023-07-06T16:47:13.465Z,28.94
2023-07-06T16:49:18.945Z,29.5
2023-07-06T16:51:24.356Z,29.01
2023-07-06T16:53:29.785Z,29.28
2023-07-06T16:55:35.275Z,28.89
2023-07-06T16:57:40.909Z,28.76
2023-07-06T16:59:46.195Z,28.75
2023-07-06T17:01:52.219Z,29.02
2023-07-06T17:03:57.673Z,29.29
2023-07-06T17:06:03.752Z,29.39
2023-07-06T17:08:09.244Z,28.72
2023-07-06T17:10:14.694Z,28.42
2023-07-06T17:12:20.083Z,28.57
2023-07-06T17:14:25.712Z,28.72
2023-07-06T17:16:31.188Z,28.36
2023-07-06T17:18:36.673Z,28.75
2023-07-06T17:20:42.203Z,28.97
2023-07-06T17:22:49.989Z,29.01
2023-07-06T17:24:55.431Z,29
2023-07-06T17:27:01.005Z,29.23
2023-07-06T17:29:06.515Z,29.23
2023-07-06T17:31:12.169Z,29.14
2023-07-06T17:33:17.704Z,29.19
2023-07-06T17:35:23.009Z,29.38
2023-07-06T17:37:28.522Z,28.88
2023-07-06T17:39:33.968Z,29.21
2023-07-06T17:41:40.436Z,29.24
2023-07-06T17:43:46.243Z,29.33
2023-07-06T17:45:51.907Z,29.43
2023-07-06T17:47:57.796Z,29.39
2023-07-06T17:50:03.321Z,29.15
2023-07-06T17:52:08.713Z,28.63
2023-07-06T17:54:14.086Z,28.11
2023-07-06T17:56:19.598Z,28.29
2023-07-06T17:58:24.943Z,28.81
2023-07-06T18:00:30.497Z,28.85
2023-07-06T18:02:36.237Z,29.14
2023-07-06T18:04:41.764Z,29.46
2023-07-06T18:06:47.588Z,29.52
2023-07-06T18:08:52.924Z,29.38
2023-07-06T18:10:58.394Z,29.4
2023-07-06T18:13:03.846Z,29.3
2023-07-06T18:15:09.341Z,28.94
2023-07-06T18:17:15.041Z,28.92
2023-07-06T18:19:20.493Z,28.84
2023-07-06T18:21:26.018Z,29.11
2023-07-06T18:23:31.475Z,29.66
2023-07-06T18:25:36.994Z,30.08
2023-07-06T18:27:42.449Z,30.44
2023-07-06T18:29:48.091Z,30.78
2023-07-06T18:31:53.780Z,31.35
2023-07-06T18:33:59.272Z,31.41
2023-07-06T18:36:04.797Z,31.47
2023-07-06T18:38:10.289Z,31.51
2023-07-06T18:40:15.589Z,32.19
2023-07-06T18:42:20.909Z,32.4
2023-07-06T18:44:26.365Z,31.78
2023-07-06T18:46:31.936Z,31.56
2023-07-06T18:48:37.475Z,31.47
2023-07-06T18:50:43.005Z,31
2023-07-06T18:52:48.570Z,30.52
2023-07-06T18:54:54.009Z,30.12
2023-07-06T18:56:59.420Z,29.35
2023-07-06T18:59:04.724Z,30.06
2023-07-06T19:01:10.385Z,30.34
2023-07-06T19:03:16.033Z,30.55
2023-07-06T19:05:21.560Z,30.58
2023-07-06T19:07:27.037Z,30.78
2023-07-06T19:09:32.476Z,31.1
2023-07-06T19:11:37.844Z,30.9
2023-07-06T19:13:43.570Z,31.03
2023-07-06T19:15:49.112Z,30.94
2023-07-06T19:17:54.990Z,30.84
2023-07-06T19:20:00.504Z,30.71
2023-07-06T19:22:06.004Z,31.06
2023-07-06T19:24:11.654Z,31.23
2023-07-06T19:26:17.342Z,31.29
2023-07-06T19:28:22.875Z,31.84
2023-07-06T19:30:28.391Z,32.06
2023-07-06T19:32:33.948Z,32.13
2023-07-06T19:34:39.616Z,32.24
2023-07-06T19:36:45.362Z,32.42
2023-07-06T19:38:50.875Z,32.6
2023-07-06T19:40:56.375Z,32.89
2023-07-06T19:43:01.895Z,33.65
2023-07-06T19:45:07.436Z,33.61
2023-07-06T19:47:13.026Z,33.01
2023-07-06T19:49:18.729Z,33.14
2023-07-06T19:51:24.715Z,33.37
2023-07-06T19:53:30.109Z,33.45
2023-07-06T19:55:35.671Z,33.42
2023-07-06T19:57:47.986Z,33.64
2023-07-06T19:59:53.509Z,33.56
2023-07-06T20:01:59.082Z,33.64
2023-07-06T20:04:05.751Z,33.47
2023-07-06T20:06:11.045Z,33.86
2023-07-06T20:08:16.496Z,33.88
2023-07-06T20:10:21.749Z,33.64
2023-07-06T20:12:27.032Z,33.72
2023-07-06T20:14:32.716Z,34.25
2023-07-06T20:16:38.403Z,34.24
2023-07-06T20:18:43.970Z,34.38
2023-07-06T20:20:49.438Z,34.38
2023-07-06T20:22:54.756Z,34.32
2023-07-06T20:25:00.215Z,34.87
2023-07-06T20:27:05.528Z,35.05
2023-07-06T20:29:10.884Z,34.8
2023-07-06T20:31:16.354Z,34.88
2023-07-06T20:33:22.082Z,34.81
2023-07-06T20:35:27.649Z,34.61
2023-07-06T20:37:32.959Z,34.54
2023-07-06T20:39:38.550Z,34.21
2023-07-06T20:41:44.152Z,34.82
2023-07-06T20:43:49.717Z,34.95
2023-07-06T20:45:55.235Z,35.11
2023-07-06T20:48:00.813Z,34.83
2023-07-06T20:50:06.317Z,34.74
2023-07-06T20:52:11.748Z,34.54
2023-07-06T20:54:17.212Z,34.66
2023-07-06T20:56:22.679Z,34.81
2023-07-06T20:58:28.294Z,34.8
2023-07-06T21:00:33.732Z,34.68
2023-07-06T21:02:39.176Z,34.89
2023-07-06T21:04:44.749Z,34.87
2023-07-06T21:06:50.367Z,34.76
2023-07-06T21:08:55.841Z,34.77
2023-07-06T21:11:01.800Z,34.78
2023-07-06T21:13:07.395Z,34.97
2023-07-06T21:15:12.746Z,35.25
2023-07-06T21:17:18.392Z,35.32
2023-07-06T21:19:23.872Z,35.01
2023-07-06T21:21:29.462Z,34.91
2023-07-06T21:23:35.009Z,34.98
2023-07-06T21:25:40.471Z,34.97
2023-07-06T21:27:46.109Z,34.98
2023-07-06T21:29:51.643Z,34.85
2023-07-06T21:31:57.167Z,35.08
2023-07-06T21:34:02.619Z,35.11
2023-07-06T21:36:08.169Z,35.04
2023-07-06T21:38:13.710Z,34.91
2023-07-06T21:40:19.254Z,34.92
2023-07-06T21:42:24.693Z,35.19
2023-07-06T21:44:30.192Z,35.14
2023-07-06T21:46:36.061Z,34.95
2023-07-06T21:48:41.488Z,35.16
2023-07-06T21:50:47.084Z,35.21
2023-07-06T21:52:52.715Z,35.26
2023-07-06T21:54:58.275Z,35.01
2023-07-06T21:57:04.072Z,35.11
2023-07-06T21:59:09.556Z,35.32
2023-07-06T22:01:15.172Z,35.25
2023-07-06T22:03:20.667Z,35.38
2023-07-06T22:05:26.133Z,35.4
2023-07-06T22:07:31.616Z,35.37
2023-07-06T22:09:37.072Z,35.44
2023-07-06T22:11:42.712Z,35.48
2023-07-06T22:13:48.674Z,35.58
2023-07-06T22:15:54.308Z,35.51
2023-07-06T22:17:59.977Z,35.63
2023-07-06T22:20:05.441Z,35.53
2023-07-06T22:22:10.915Z,35.7
2023-07-06T22:24:16.377Z,35.64
2023-07-06T22:26:21.913Z,35.77
2023-07-06T22:28:27.474Z,35.53
2023-07-06T22:30:33.012Z,35.81
2023-07-06T22:32:38.572Z,35.66
2023-07-06T22:34:44.088Z,35.83
2023-07-06T22:36:49.525Z,35.4
2023-07-06T22:38:54.943Z,35.49
2023-07-06T22:41:00.926Z,35.54
2023-07-06T22:43:06.411Z,35.76
2023-07-06T22:45:12.001Z,35.91
2023-07-06T22:47:17.458Z,36.08
2023-07-06T22:49:22.982Z,35.76
2023-07-06T22:51:28.430Z,36.31
2023-07-06T22:53:34.321Z,36.09
2023-07-06T22:55:39.812Z,35.91
2023-07-06T22:57:45.149Z,36.25
2023-07-06T22:59:50.610Z,36.39
2023-07-06T23:01:56.684Z,36.31
2023-07-06T23:04:02.685Z,36.2
2023-07-06T23:06:08.270Z,36.29
2023-07-06T23:08:13.802Z,36.41
2023-07-06T23:10:19.449Z,36.58
2023-07-06T23:12:24.883Z,36.21
2023-07-06T23:14:30.424Z,36.22
2023-07-06T23:16:36.035Z,36.44
2023-07-06T23:18:41.512Z,36.56
2023-07-06T23:20:46.958Z,36.53
2023-07-06T23:22:52.390Z,36.49
2023-07-06T23:24:57.936Z,36.25
2023-07-06T23:27:03.483Z,36.53
2023-07-06T23:29:08.943Z,36.21
2023-07-06T23:31:14.403Z,36.59
2023-07-06T23:33:20.030Z,36.64
2023-07-06T23:35:25.644Z,36.52
2023-07-06T23:37:31.051Z,36.54
2023-07-06T23:39:36.479Z,36.56
2023-07-06T23:41:41.981Z,36.62
2023-07-06T23:43:47.458Z,36.6
2023-07-06T23:45:52.955Z,36.58
2023-07-06T23:47:58.525Z,36.64
2023-07-06T23:50:04.252Z,36.57
2023-07-06T23:52:09.784Z,36.49
2023-07-06T23:54:15.372Z,36.58
2023-07-06T23:56:20.842Z,36.68
2023-07-06T23:58:26.459Z,36.29
